Home > Products > Valid Products > MTR

000
SAUS41 KBOX 172101 COR
MTRMQE
METAR KMQE 172054Z AUTO 29015G22KT 07/04 A2968 RMK AO1 SLP062
T00670044 53003





000
SAUS41 KBOX 172001 COR
MTRMQE
METAR KMQE 171954Z AUTO 30008KT 07/06 A2967 RMK AO1 SLP061 T00720061





000
SAUS41 KBOX 171901 COR
MTRMQE
METAR KMQE 171854Z AUTO 30009G17KT 06/06 A2967 RMK AO1 SLP059
T00610061





000
SAUS41 KBOX 171801 COR
MTRMQE
METAR KMQE 171754Z AUTO 29011G17KT 06/06 A2967 RMK AO1 SLP060 60002
T00560056 10056 20039 56015





000
SAUS41 KBOX 171701 COR
MTRMQE
METAR KMQE 171654Z AUTO 31011KT 04/04 A2968 RMK AO1 SLP064 T00440044





000
SAUS41 KBOX 171601 COR
MTRMQE
METAR KMQE 171554Z AUTO 31013KT 04/04 A2970 RMK AO1 SLP070 T00440044





000
SAUS41 KBOX 171601 COR
MTRMQE
METAR KMQE 171554Z AUTO 31013KT 04/04 A2970 RMK AO1 SLP070 T00440044





000
SAUS41 KBOX 171456
MTRMQE
METAR KMQE 171454Z AUTO 32010KT 04/04 A2971 RMK AO1 SLP075 60002
T00390039 55000





000
SAUS41 KBOX 171355
MTRMQE
METAR KMQE 171354Z AUTO 31011KT 04/04 A2971 RMK AO1 SLP074 T00440044





000
SAUS41 KBOX 171255
MTRMQE
METAR KMQE 171254Z AUTO 32011KT 04/04 A2971 RMK AO1 SLP074 P0002
T00440044





000
SAUS41 KBOX 171155
MTRMQE
METAR KMQE 171154Z AUTO 33009KT 05/05 A2971 RMK AO1 SLP075 P0009
60043 70043 T00500050 10067 20050 56021





000
SAUS41 KBOX 171055
MTRMQE
METAR KMQE 171054Z AUTO 33008KT 06/06 A2973 RMK AO1 SLP081 P0011
T00560056





000
SAUS41 KBOX 170955
MTRMQE
METAR KMQE 170954Z AUTO 36007KT 07/07 A2975 RMK AO1 SLP088 P0014
T00670067





000
SAUS41 KBOX 170955
MTRMQE
METAR KMQE 170954Z AUTO 36007KT 07/07 A2975 RMK AO1 SLP088 P0014
T00670067





000
SAUS41 KBOX 170855
MTRMQE
METAR KMQE 170854Z AUTO 02011KT 07/07 A2977 RMK AO1 SLP097 P0006
60009 T00670067 56029





000
SAUS41 KBOX 170855
MTRMQE
METAR KMQE 170854Z AUTO 02011KT 07/07 A2977 RMK AO1 SLP097 P0006
60009 T00670067 56029





000
SAUS41 KBOX 170756
MTRMQE
METAR KMQE 170754Z AUTO 04011KT 06/06 A2979 RMK AO1 SLP103 P0001
T00610061





000
SAUS41 KBOX 170756
MTRMQE
METAR KMQE 170754Z AUTO 04011KT 06/06 A2979 RMK AO1 SLP103 P0001
T00610061





000
SAUS41 KBOX 170655
MTRMQE
METAR KMQE 170654Z AUTO 02008KT 06/06 A2983 RMK AO1 PRESFR SLP117
P0002 T00560056





000
SAUS41 KBOX 170555
MTRMQE
METAR KMQE 170554Z AUTO 05008KT 06/06 A2986 RMK AO1 SLP127 T00560056
10056 20039 56025





000
SAUS41 KBOX 170457
MTRMQE
METAR KMQE 170454Z AUTO 05008KT 05/05 A2989 RMK AO1 SLP135 T00500050
400560006





000
SAUS41 KBOX 170457
MTRMQE
METAR KMQE 170454Z AUTO 05008KT 05/05 A2989 RMK AO1 SLP135 T00500050
400560006





000
SAUS41 KBOX 170355
MTRMQE
METAR KMQE 170354Z AUTO 10010KT 06/06 A2992 RMK AO1 SLP145 T00560056





000
SAUS41 KBOX 170355
MTRMQE
METAR KMQE 170354Z AUTO 10010KT 06/06 A2992 RMK AO1 SLP145 T00560056





000
SAUS41 KBOX 170256
MTRMQE
METAR KMQE 170254Z AUTO 10009KT 05/05 A2994 RMK AO1 SLP154 T00500050
56015





000
SAUS41 KBOX 170155
MTRMQE
METAR KMQE 170154Z AUTO 11008KT 04/04 A2996 RMK AO1 SLP161 T00440044





000
SAUS41 KBOX 170055
MTRMQE
METAR KMQE 170054Z AUTO 11010KT 04/04 A2996 RMK AO1 SLP161 T00440039





000
SAUS41 KBOX 162355
MTRMQE
METAR KMQE 162354Z AUTO 11009KT 04/03 A2998 RMK AO1 SLP169 T00390033
10039 20033 58016





000
SAUS41 KBOX 162255
MTRMQE
METAR KMQE 162254Z AUTO 09008KT 04/03 A3001 RMK AO1 SLP177 T00390033





000
SAUS41 KBOX 162155
MTRMQE
METAR KMQE 162154Z AUTO 09007KT 03/03 A3002 RMK AO1 SLP181 T00330028





000
SAUS41 KBOX 162055
MTRMQE
METAR KMQE 162054Z AUTO 09007KT 03/02 A3003 RMK AO1 SLP186 T00330022
56009





000
SAUS41 KBOX 161956
MTRMQE
METAR KMQE 161954Z AUTO 11005KT 03/02 A3004 RMK AO1 SLP189 T00330017





000
SAUS41 KBOX 161856
MTRMQE
METAR KMQE 161854Z AUTO 12004KT 03/02 A3004 RMK AO1 SLP189 T00330017





000
SAUS41 KBOX 161755
MTRMQE
METAR KMQE 161754Z AUTO 00000KT 03/01 A3006 RMK AO1 SLP196 T00330011
10033 20017 56019





000
SAUS41 KBOX 161655
MTRMQE
METAR KMQE 161654Z AUTO 12004KT 03/01 A3008 RMK AO1 SLP200 T00330011





000
SAUS41 KBOX 161555
MTRMQE
METAR KMQE 161554Z AUTO 12005KT 03/01 A3010 RMK AO1 SLP207 T00280006





000
SAUS41 KBOX 161555
MTRMQE
METAR KMQE 161554Z AUTO 12005KT 03/01 A3010 RMK AO1 SLP207 T00280006





000
SAUS41 KBOX 161455
MTRMQE
METAR KMQE 161454Z AUTO 08005KT 03/01 A3012 RMK AO1 SLP215 T00280006
50001





000
SAUS41 KBOX 161355
MTRMQE
METAR KMQE 161354Z AUTO 13003KT 02/00 A3012 RMK AO1 SLP218 T00220000





000
SAUS41 KBOX 161255
MTRMQE
METAR KMQE 161254Z AUTO 17006KT 02/M01 A3012 RMK AO1 SLP216
T00221006





000
SAUS41 KBOX 161155
MTRMQE
METAR KMQE 161154Z AUTO 20005KT 02/M01 A3012 RMK AO1 SLP215
T00221006 10022 20006 55001





000
SAUS41 KBOX 161055
MTRMQE
METAR KMQE 161054Z AUTO 16005KT 02/M01 A3011 RMK AO1 SLP212
T00171006





000
SAUS41 KBOX 160955
MTRMQE
METAR KMQE 160954Z AUTO 15004KT 02/M01 A3010 RMK AO1 SLP209
T00221006





000
SAUS41 KBOX 160855
MTRMQE
METAR KMQE 160854Z AUTO 00000KT 01/M01 A3012 RMK AO1 SLP215
T00111011 50002





000
SAUS41 KBOX 160755
MTRMQE
METAR KMQE 160754Z AUTO 29003KT 01/M01 A3012 RMK AO1 SLP215
T00061011





000
SAUS41 KBOX 160655
MTRMQE
METAR KMQE 160654Z AUTO 00000KT 01/M01 A3012 RMK AO1 SLP214
T00111006





000
SAUS41 KBOX 160555
MTRMQE
METAR KMQE 160554Z AUTO 26004KT 01/M01 A3011 RMK AO1 SLP212
T00061011 10017 20006 51005





000
SAUS41 KBOX 160455
MTRMQE
METAR KMQE 160454Z AUTO 00000KT 01/M01 A3011 RMK AO1 SLP212
T00111006 400501022





000
SAUS41 KBOX 160355
MTRMQE
METAR KMQE 160354Z AUTO 14004KT 01/M01 A3011 RMK AO1 SLP214
T00111006





000
SAUS41 KBOX 160355
MTRMQE
METAR KMQE 160354Z AUTO 14004KT 01/M01 A3011 RMK AO1 SLP214
T00111006





000
SAUS41 KBOX 160255
MTRMQE
METAR KMQE 160254Z AUTO 11008KT 02/M01 A3010 RMK AO1 SLP208
T00171006 50002





000
SAUS41 KBOX 160155
MTRMQE
METAR KMQE 160154Z AUTO 11008KT 01/M01 A3010 RMK AO1 SLP210
T00111011





000
SAUS41 KBOX 160055
MTRMQE
METAR KMQE 160054Z AUTO 11007KT 02/M01 A3011 RMK AO1 SLP213
T00171006





000
SAUS41 KBOX 152355
MTRMQE
METAR KMQE 152354Z AUTO 09008KT 01/M01 A3009 RMK AO1 SLP207
T00111006 10050 20011 51021





000
SAUS41 KBOX 152255
MTRMQE
METAR KMQE 152254Z AUTO 09008KT 01/M02 A3007 RMK AO1 SLP202
T00111017





000
SAUS41 KBOX 152155
MTRMQE
METAR KMQE 152154Z AUTO 08007KT 02/M03 A3005 RMK AO1 SLP192
T00171028





000
SAUS41 KBOX 152155
MTRMQE
METAR KMQE 152154Z AUTO 08007KT 02/M03 A3005 RMK AO1 SLP192
T00171028





000
SAUS41 KBOX 152055
MTRMQE
METAR KMQE 152054Z AUTO 07006KT 03/M02 A3003 RMK AO1 SLP184
T00281022 53009





000
SAUS41 KBOX 151955
MTRMQE
METAR KMQE 151954Z AUTO 08003KT 04/M02 A3002 RMK AO1 SLP183
T00391022





000
SAUS41 KBOX 151855
MTRMQE
METAR KMQE 151854Z AUTO VRB04KT 04/M03 A3000 RMK AO1 SLP176
T00441028





000
SAUS41 KBOX 151755
MTRMQE
METAR KMQE 151754Z AUTO 00000KT 04/M02 A3000 RMK AO1 SLP175
T00391022 10039 21017 56001





000
SAUS41 KBOX 151656
MTRMQE
METAR KMQE 151654Z AUTO 32005KT 03/M02 A3000 RMK AO1 SLP176
T00331022





000
SAUS41 KBOX 151555
MTRMQE
METAR KMQE 151554Z AUTO 33005KT 02/M03 A3000 RMK AO1 SLP176
T00221028





000
SAUS41 KBOX 151455
MTRMQE
METAR KMQE 151454Z AUTO 32009G16KT 01/M03 A3000 RMK AO1 SLP177
T00111028 51019





000
SAUS41 KBOX 151355
MTRMQE
METAR KMQE 151354Z AUTO 32010KT M01/M03 A2999 RMK AO1 SLP174
T10061028





000
SAUS41 KBOX 151255
MTRMQE
METAR KMQE 151254Z AUTO 32010KT M02/M03 A2997 RMK AO1 SLP165
T10171028





000
SAUS41 KBOX 151155
MTRMQE
METAR KMQE 151154Z AUTO 31010KT M02/M03 A2995 RMK AO1 SLP158
T10171028 11011 21022 53013





000
SAUS41 KBOX 151055
MTRMQE
METAR KMQE 151054Z AUTO 32011KT M01/M03 A2993 RMK AO1 SLP153
T10111028





000
SAUS41 KBOX 150956
MTRMQE
METAR KMQE 150954Z AUTO 31011KT M02/M03 A2991 RMK AO1 SLP146
T10171028





000
SAUS41 KBOX 150855
MTRMQE
METAR KMQE 150854Z AUTO 31009KT M02/M03 A2991 RMK AO1 SLP143
T10221033 51013





000
SAUS41 KBOX 150755
MTRMQE
METAR KMQE 150754Z AUTO 32010KT M02/M03 A2989 RMK AO1 SLP138
T10171028





000
SAUS41 KBOX 150755
MTRMQE
METAR KMQE 150754Z AUTO 32010KT M02/M03 A2989 RMK AO1 SLP138
T10171028





000
SAUS41 KBOX 150655
MTRMQE
METAR KMQE 150654Z AUTO 32011KT M01/M03 A2989 RMK AO1 SLP136
T10111028





000
SAUS41 KBOX 150555
MTRMQE
METAR KMQE 150554Z AUTO 32010KT M01/M03 A2987 RMK AO1 SLP130
T10111028 10006 21017 55001





000
SAUS41 KBOX 150455
MTRMQE
METAR KMQE 150454Z AUTO 31012KT M01/M03 A2986 RMK AO1 SLP129
T10111028 400611022





000
SAUS41 KBOX 150355
MTRMQE
METAR KMQE 150354Z AUTO 32010KT M01/M03 A2987 RMK AO1 SLP131
T10111028





000
SAUS41 KBOX 150355
MTRMQE
METAR KMQE 150354Z AUTO 32010KT M01/M03 A2987 RMK AO1 SLP131
T10111028





000
SAUS41 KBOX 150255
MTRMQE
METAR KMQE 150254Z AUTO 31011KT M01/M03 A2987 RMK AO1 SLP133
T10061028 51010





000
SAUS41 KBOX 150155
MTRMQE
METAR KMQE 150154Z AUTO 31010KT M01/M03 A2986 RMK AO1 SLP130
T10061028





000
SAUS41 KBOX 150055
MTRMQE
METAR KMQE 150054Z AUTO 32012KT 00/M03 A2985 RMK AO1 SLP127
T00001028





000
SAUS41 KBOX 142355
MTRMQE
METAR KMQE 142354Z AUTO 31009G15KT 01/M02 A2984 RMK AO1 SLP122
T00061022 10061 20006 53017





000
SAUS41 KBOX 142255
MTRMQE
METAR KMQE 142254Z AUTO 31010KT 02/M02 A2981 RMK AO1 SLP112
T00171022





000
SAUS41 KBOX 142155
MTRMQE
METAR KMQE 142154Z AUTO 32008KT 03/M02 A2980 RMK AO1 SLP109
T00281022





    US Dept of Commerce
    National Oceanic and Atmospheric Administration
    National Weather Service
    1325 East West Highway
    Silver Spring, MD 20910
    Page Author: NWS Internet Services Team
Disclaimer
Information Quality
Credits
Glossary
Privacy Policy
Freedom of Information Act (FOIA)
About Us
Career Opportunities